createdAt,value
2018-06-13T00:00:42.947Z,16.00
2018-06-13T00:03:10.272Z,15.90
2018-06-13T00:05:37.635Z,15.80
2018-06-13T00:08:05.020Z,15.90
2018-06-13T00:10:32.231Z,16.10
2018-06-13T00:15:27.042Z,15.80
2018-06-13T00:17:54.296Z,15.80
2018-06-13T00:20:21.700Z,15.70
2018-06-13T00:22:49.116Z,15.70
2018-06-13T00:25:16.520Z,15.70
2018-06-13T00:27:44.365Z,15.30
2018-06-13T00:30:11.808Z,15.70
2018-06-13T00:32:39.256Z,16.00
2018-06-13T00:35:06.479Z,15.60
2018-06-13T00:37:33.693Z,15.60
2018-06-13T00:40:01.068Z,15.50
2018-06-13T00:42:28.338Z,15.50
2018-06-13T00:44:55.572Z,15.60
2018-06-13T00:47:24.970Z,15.60
2018-06-13T00:49:52.353Z,15.60
2018-06-13T00:52:19.825Z,16.10
2018-06-13T00:54:47.165Z,16.00
2018-06-13T00:57:14.442Z,15.50
2018-06-13T00:59:41.713Z,15.60
2018-06-13T01:02:08.991Z,15.70
2018-06-13T01:04:36.384Z,15.70
2018-06-13T01:07:03.604Z,15.80
2018-06-13T01:09:31.061Z,15.70
2018-06-13T01:11:58.425Z,15.70
2018-06-13T01:14:25.964Z,15.70
2018-06-13T01:16:53.456Z,15.60
2018-06-13T01:19:20.921Z,15.60
2018-06-13T01:21:48.756Z,15.70
2018-06-13T01:24:16.046Z,15.40
2018-06-13T01:26:43.484Z,16.00
2018-06-13T01:29:10.757Z,15.70
2018-06-13T01:31:38.086Z,16.00
2018-06-13T01:34:05.408Z,15.80
2018-06-13T01:36:32.816Z,15.70
2018-06-13T01:39:00.222Z,15.10
2018-06-13T01:41:27.629Z,15.70
2018-06-13T01:43:55.106Z,15.70
2018-06-13T01:46:22.490Z,15.60
2018-06-13T01:48:49.931Z,15.90
2018-06-13T01:51:17.281Z,15.70
2018-06-13T01:53:44.528Z,15.80
2018-06-13T01:56:11.976Z,15.60
2018-06-13T01:58:39.292Z,15.70
2018-06-13T02:01:07.145Z,15.70
2018-06-13T02:03:35.131Z,15.70
2018-06-13T02:06:02.496Z,16.60
2018-06-13T02:08:29.780Z,15.70
2018-06-13T02:10:57.067Z,15.90
2018-06-13T02:13:24.307Z,15.60
2018-06-13T02:15:51.576Z,15.60
2018-06-13T02:18:18.869Z,16.00
2018-06-13T02:20:46.872Z,15.70
2018-06-13T02:23:14.148Z,15.90
2018-06-13T02:25:41.520Z,15.60
2018-06-13T02:28:08.853Z,15.60
2018-06-13T02:30:36.856Z,16.20
2018-06-13T02:33:04.220Z,15.60
2018-06-13T02:35:31.689Z,15.90
2018-06-13T02:37:58.964Z,15.50
2018-06-13T02:40:26.311Z,15.30
2018-06-13T02:42:53.579Z,15.50
2018-06-13T02:45:20.849Z,15.30
2018-06-13T02:47:48.194Z,15.60
2018-06-13T02:50:15.539Z,15.90
2018-06-13T02:52:43.468Z,14.80
2018-06-13T02:57:38.868Z,15.70
2018-06-13T03:00:06.112Z,15.20
2018-06-13T03:02:33.492Z,15.70
2018-06-13T03:05:00.846Z,15.60
2018-06-13T03:07:28.063Z,16.00
2018-06-13T03:09:55.346Z,15.60
2018-06-13T03:12:22.612Z,15.60
2018-06-13T03:14:49.985Z,15.90
2018-06-13T03:17:17.268Z,15.60
2018-06-13T03:19:44.545Z,15.60
2018-06-13T03:22:11.926Z,15.70
2018-06-13T03:24:39.320Z,15.60
2018-06-13T03:27:06.748Z,15.60
2018-06-13T03:29:34.000Z,15.60
2018-06-13T03:32:01.312Z,15.70
2018-06-13T03:34:28.608Z,15.60
2018-06-13T03:36:56.143Z,15.60
2018-06-13T03:39:23.668Z,15.60
2018-06-13T03:41:51.113Z,15.60
2018-06-13T03:44:18.631Z,15.80
2018-06-13T03:46:46.259Z,15.60
2018-06-13T03:49:13.783Z,15.70
2018-06-13T03:51:41.343Z,16.10
2018-06-13T03:54:08.964Z,15.50
2018-06-13T03:56:36.503Z,14.90
2018-06-13T03:59:04.086Z,15.50
2018-06-13T04:01:31.573Z,16.00
2018-06-13T04:03:59.053Z,15.70
2018-06-13T04:06:26.654Z,15.40
2018-06-13T04:08:54.160Z,15.80
2018-06-13T04:11:22.455Z,15.50
2018-06-13T04:13:49.892Z,15.50
2018-06-13T04:16:17.361Z,15.70
2018-06-13T04:18:44.808Z,15.60
2018-06-13T04:21:12.316Z,15.50
2018-06-13T04:23:39.866Z,15.60
2018-06-13T04:26:07.541Z,15.60
2018-06-13T04:28:35.132Z,15.60
2018-06-13T04:31:03.365Z,15.60
2018-06-13T04:33:30.946Z,15.80
2018-06-13T04:35:58.563Z,15.60
2018-06-13T04:38:26.178Z,15.90
2018-06-13T04:40:53.436Z,15.90
2018-06-13T04:43:20.889Z,15.50
2018-06-13T04:45:48.415Z,15.50
2018-06-13T04:48:16.168Z,16.20
2018-06-13T04:50:43.521Z,15.60
2018-06-13T04:56:07.883Z,15.50
2018-06-13T04:58:35.287Z,16.20
2018-06-13T05:01:02.820Z,15.50
2018-06-13T05:03:30.221Z,15.60
2018-06-13T05:05:57.839Z,15.60
2018-06-13T05:08:25.258Z,15.60
2018-06-13T05:10:52.689Z,15.60
2018-06-13T05:13:20.137Z,15.60
2018-06-13T05:15:48.300Z,15.80
2018-06-13T05:18:15.816Z,15.60
2018-06-13T05:20:43.348Z,15.60
2018-06-13T05:23:10.814Z,15.90
2018-06-13T05:25:38.324Z,16.00
2018-06-13T05:28:05.679Z,15.70
2018-06-13T05:30:32.948Z,15.50
2018-06-13T05:33:00.423Z,16.00
2018-06-13T05:35:27.884Z,16.10
2018-06-13T05:37:55.302Z,16.10
2018-06-13T05:40:22.896Z,16.10
2018-06-13T05:42:50.333Z,16.30
2018-06-13T05:45:17.779Z,16.00
2018-06-13T05:47:45.286Z,16.10
2018-06-13T05:50:12.725Z,16.10
2018-06-13T05:52:40.172Z,16.60
2018-06-13T05:55:07.668Z,16.10
2018-06-13T05:57:35.172Z,16.10
2018-06-13T06:00:02.695Z,16.10
2018-06-13T06:02:30.124Z,16.30
2018-06-13T06:04:57.713Z,16.10
2018-06-13T06:07:25.165Z,15.90
2018-06-13T06:09:52.624Z,16.20
2018-06-13T06:12:20.257Z,16.00
2018-06-13T06:14:48.376Z,16.00
2018-06-13T06:17:15.603Z,16.20
2018-06-13T06:19:42.858Z,16.10
2018-06-13T06:22:10.344Z,16.20
2018-06-13T06:24:42.172Z,16.50
2018-06-13T06:27:09.880Z,16.20
2018-06-13T06:29:37.112Z,16.30
2018-06-13T06:32:04.408Z,16.40
2018-06-13T06:34:31.984Z,16.90
2018-06-13T06:36:59.445Z,16.40
2018-06-13T06:39:26.645Z,16.50
2018-06-13T06:41:53.873Z,16.90
2018-06-13T06:44:21.136Z,16.60
2018-06-13T06:46:48.444Z,16.60
2018-06-13T06:49:15.966Z,16.90
2018-06-13T06:51:44.073Z,16.90
2018-06-13T06:54:11.476Z,16.70
2018-06-13T06:56:38.792Z,16.80
2018-06-13T06:59:06.048Z,16.90
2018-06-13T07:01:33.284Z,17.00
2018-06-13T07:04:00.701Z,17.00
2018-06-13T07:06:27.960Z,16.80
2018-06-13T07:08:55.212Z,16.70
2018-06-13T07:11:22.460Z,16.70
2018-06-13T07:13:49.702Z,17.30
2018-06-13T07:16:16.963Z,16.70
2018-06-13T07:18:44.235Z,17.10
2018-06-13T07:21:12.694Z,16.90
2018-06-13T07:23:39.974Z,16.90
2018-06-13T07:26:07.261Z,17.00
2018-06-13T07:28:34.602Z,17.00
2018-06-13T07:31:01.905Z,17.20
2018-06-13T07:33:29.197Z,17.20
2018-06-13T07:35:56.471Z,17.10
2018-06-13T07:38:24.384Z,17.10
2018-06-13T07:40:51.684Z,17.10
2018-06-13T07:43:18.975Z,17.20
2018-06-13T07:45:46.224Z,17.40
2018-06-13T07:48:13.553Z,17.40
2018-06-13T07:50:40.825Z,17.40
2018-06-13T07:53:08.165Z,17.50
2018-06-13T07:55:35.474Z,17.50
2018-06-13T07:58:02.754Z,17.90
2018-06-13T08:00:30.034Z,17.70
2018-06-13T08:02:57.331Z,17.60
2018-06-13T08:05:25.916Z,17.80
2018-06-13T08:07:53.583Z,17.70
2018-06-13T08:10:20.885Z,17.80
2018-06-13T08:12:48.165Z,18.40
2018-06-13T08:15:15.425Z,17.90
2018-06-13T08:17:42.908Z,17.90
2018-06-13T08:20:10.387Z,17.90
2018-06-13T08:22:37.689Z,18.00
2018-06-13T08:25:05.140Z,17.60
2018-06-13T08:27:32.400Z,18.00
2018-06-13T08:29:59.856Z,18.10
2018-06-13T08:32:27.407Z,17.70
2018-06-13T08:34:55.010Z,18.00
2018-06-13T08:37:22.504Z,17.70
2018-06-13T08:39:49.930Z,17.70
2018-06-13T08:42:20.364Z,17.70
2018-06-13T08:44:47.789Z,17.80
2018-06-13T08:47:15.308Z,18.00
2018-06-13T08:49:42.797Z,17.80
2018-06-13T08:52:10.244Z,17.80
2018-06-13T08:54:37.713Z,17.80
2018-06-13T08:57:08.972Z,17.70
2018-06-13T08:59:36.376Z,17.80
2018-06-13T09:02:03.675Z,17.90
2018-06-13T09:04:30.969Z,17.80
2018-06-13T09:06:58.404Z,17.50
2018-06-13T09:09:25.853Z,17.60
2018-06-13T09:11:57.345Z,17.70
2018-06-13T09:14:24.855Z,17.70
2018-06-13T09:16:52.127Z,17.70
2018-06-13T09:19:19.384Z,17.80
2018-06-13T09:21:46.664Z,17.90
2018-06-13T09:24:13.944Z,18.00
2018-06-13T09:26:44.450Z,18.00
2018-06-13T09:29:11.763Z,18.00
2018-06-13T09:31:39.071Z,17.90
2018-06-13T09:34:06.509Z,17.80
2018-06-13T09:36:33.797Z,17.90
2018-06-13T09:39:01.193Z,18.00
2018-06-13T09:43:58.135Z,17.70
2018-06-13T09:46:25.460Z,17.70
2018-06-13T09:48:53.369Z,17.60
2018-06-13T09:51:20.837Z,18.00
2018-06-13T09:53:48.188Z,17.50
2018-06-13T09:56:15.576Z,17.60
2018-06-13T09:58:52.107Z,17.70
2018-06-13T10:01:25.066Z,17.60
2018-06-13T10:03:52.325Z,17.90
2018-06-13T10:06:19.580Z,18.00
2018-06-13T10:08:46.842Z,17.90
2018-06-13T10:11:14.232Z,18.10
2018-06-13T10:13:41.460Z,18.10
2018-06-13T10:16:08.760Z,18.30
2018-06-13T10:18:36.202Z,18.40
2018-06-13T10:21:03.430Z,18.50
2018-06-13T10:23:30.919Z,18.50
2018-06-13T10:25:58.209Z,18.60
2018-06-13T10:28:25.633Z,18.70
2018-06-13T10:30:53.049Z,18.50
2018-06-13T10:33:20.376Z,18.60
2018-06-13T10:35:47.668Z,18.70
2018-06-13T10:38:14.932Z,18.80
2018-06-13T10:40:42.244Z,18.90
2018-06-13T10:43:09.532Z,18.90
2018-06-13T10:45:36.919Z,18.90
2018-06-13T10:48:04.474Z,19.00
2018-06-13T10:50:31.766Z,19.00
2018-06-13T10:52:59.061Z,19.20
2018-06-13T10:55:26.291Z,19.40
2018-06-13T10:57:53.544Z,19.60
2018-06-13T11:00:20.789Z,19.50
2018-06-13T11:02:48.236Z,19.80
2018-06-13T11:05:15.680Z,19.40
2018-06-13T11:07:43.247Z,19.30
2018-06-13T11:10:10.693Z,19.20
2018-06-13T11:12:38.941Z,19.10
2018-06-13T11:15:06.433Z,18.90
2018-06-13T11:17:34.359Z,18.80
2018-06-13T11:20:02.024Z,19.10
2018-06-13T11:22:29.433Z,18.50
2018-06-13T11:24:56.928Z,18.70
2018-06-13T11:27:24.429Z,18.30
2018-06-13T11:29:51.860Z,18.20
2018-06-13T11:32:19.393Z,18.20
2018-06-13T11:34:46.944Z,18.00
2018-06-13T11:37:14.423Z,18.40
2018-06-13T11:39:41.926Z,18.10
2018-06-13T11:42:09.391Z,18.20
2018-06-13T11:44:36.913Z,18.20
2018-06-13T11:47:04.363Z,17.90
2018-06-13T11:49:31.868Z,18.30
2018-06-13T11:51:59.418Z,18.50
2018-06-13T11:54:26.916Z,18.60
2018-06-13T11:56:54.414Z,18.70
2018-06-13T11:59:21.924Z,18.80
2018-06-13T12:01:49.846Z,18.90
2018-06-13T12:06:45.381Z,19.00
2018-06-13T12:09:12.785Z,19.10
2018-06-13T12:11:40.322Z,19.10
2018-06-13T12:14:07.707Z,19.30
2018-06-13T12:16:35.297Z,19.20
2018-06-13T12:19:02.747Z,19.30
2018-06-13T12:21:32.205Z,19.40
2018-06-13T12:23:59.648Z,19.50
2018-06-13T12:26:27.116Z,19.80
2018-06-13T12:28:54.560Z,19.70
2018-06-13T12:31:22.025Z,19.60
2018-06-13T12:33:49.487Z,19.40
2018-06-13T12:36:19.533Z,19.50
2018-06-13T12:38:47.024Z,19.60
2018-06-13T12:41:14.493Z,19.80
2018-06-13T12:43:41.997Z,19.70
2018-06-13T12:46:09.448Z,19.70
2018-06-13T12:48:42.357Z,19.60
2018-06-13T12:51:09.909Z,19.70
2018-06-13T12:53:37.544Z,19.70
2018-06-13T12:56:05.068Z,19.70
2018-06-13T12:58:32.572Z,19.80
2018-06-13T13:01:00.009Z,19.80
2018-06-13T13:03:27.513Z,19.70
2018-06-13T13:05:54.936Z,19.70
2018-06-13T13:08:22.404Z,19.80
2018-06-13T13:10:49.829Z,19.80
2018-06-13T13:13:18.025Z,19.80
2018-06-13T13:15:45.501Z,19.80
2018-06-13T13:18:12.957Z,19.80
2018-06-13T13:20:40.435Z,19.90
2018-06-13T13:23:07.827Z,19.80
2018-06-13T13:25:35.245Z,19.90
2018-06-13T13:28:02.709Z,19.90
2018-06-13T13:30:30.188Z,20.00
2018-06-13T13:32:57.656Z,20.10
2018-06-13T13:35:25.773Z,20.40
2018-06-13T13:37:56.159Z,20.10
2018-06-13T13:40:23.583Z,20.10
2018-06-13T13:42:51.005Z,20.10
2018-06-13T13:45:18.488Z,20.20
2018-06-13T13:47:45.960Z,20.30
2018-06-13T13:50:16.965Z,20.20
2018-06-13T13:52:45.484Z,20.20
2018-06-13T13:55:13.420Z,20.10
2018-06-13T13:57:40.704Z,20.10
2018-06-13T14:00:08.037Z,20.10
2018-06-13T14:02:35.272Z,20.20
2018-06-13T14:05:02.565Z,20.00
2018-06-13T14:07:29.818Z,20.10
2018-06-13T14:09:57.223Z,20.00
2018-06-13T14:12:24.487Z,20.10
2018-06-13T14:14:51.712Z,20.00
2018-06-13T14:17:18.944Z,20.20
2018-06-13T14:19:46.201Z,19.90
2018-06-13T14:22:13.485Z,19.80
2018-06-13T14:24:40.795Z,20.30
2018-06-13T14:27:08.060Z,19.70
2018-06-13T14:29:35.342Z,19.90
2018-06-13T14:32:02.855Z,20.10
2018-06-13T14:34:30.343Z,20.40
2018-06-13T14:36:57.821Z,20.30
2018-06-13T14:39:25.265Z,20.30
2018-06-13T14:41:52.714Z,20.40
2018-06-13T14:44:24.277Z,20.40
2018-06-13T14:46:51.644Z,20.40
2018-06-13T14:49:19.000Z,20.40
2018-06-13T14:51:51.068Z,20.20
2018-06-13T14:54:18.339Z,20.00
2018-06-13T14:56:50.374Z,20.20
2018-06-13T14:59:17.752Z,20.20
2018-06-13T15:01:45.037Z,20.30
2018-06-13T15:04:13.243Z,20.30
2018-06-13T15:06:40.529Z,20.30
2018-06-13T15:09:08.638Z,20.30
2018-06-13T15:11:36.868Z,20.60
2018-06-13T15:14:04.224Z,20.30
2018-06-13T15:16:31.500Z,20.20
2018-06-13T15:18:58.853Z,20.10
2018-06-13T15:21:26.092Z,20.20
2018-06-13T15:23:53.328Z,20.30
2018-06-13T15:26:20.760Z,20.40
2018-06-13T15:28:48.687Z,20.40
2018-06-13T15:31:16.029Z,20.30
2018-06-13T15:33:43.313Z,20.30
2018-06-13T15:36:10.573Z,20.30
2018-06-13T15:38:37.823Z,20.30
2018-06-13T15:41:05.202Z,20.50
2018-06-13T15:43:32.499Z,20.30
2018-06-13T15:45:59.813Z,20.30
2018-06-13T15:48:27.044Z,20.60
2018-06-13T15:50:54.316Z,20.10
2018-06-13T15:53:21.647Z,19.70
2018-06-13T15:55:49.275Z,20.10
2018-06-13T15:58:16.581Z,20.10
2018-06-13T16:00:44.346Z,20.10
2018-06-13T16:03:11.755Z,20.10
2018-06-13T16:05:40.976Z,19.90
2018-06-13T16:08:08.251Z,20.00
2018-06-13T16:10:35.536Z,19.90
2018-06-13T16:13:02.768Z,19.90
2018-06-13T16:15:30.037Z,20.40
2018-06-13T16:18:00.343Z,20.10
2018-06-13T16:20:27.693Z,19.70
2018-06-13T16:22:55.132Z,19.80
2018-06-13T16:25:22.396Z,19.70
2018-06-13T16:27:49.652Z,19.80
2018-06-13T16:30:17.067Z,19.60
2018-06-13T16:32:44.344Z,19.60
2018-06-13T16:35:11.601Z,19.60
2018-06-13T16:37:38.835Z,19.50
2018-06-13T16:40:06.120Z,19.70
2018-06-13T16:42:33.509Z,19.50
2018-06-13T16:45:04.295Z,19.90
2018-06-13T16:47:32.230Z,19.50
2018-06-13T16:49:59.500Z,18.90
2018-06-13T16:55:20.680Z,19.30
2018-06-13T16:57:49.225Z,19.20
2018-06-13T17:00:17.085Z,19.30
2018-06-13T17:02:49.564Z,19.30
2018-06-13T17:05:17.016Z,19.10
2018-06-13T17:07:44.605Z,19.30
2018-06-13T17:10:11.849Z,19.30
2018-06-13T17:12:39.432Z,19.60
2018-06-13T17:15:06.700Z,19.40
2018-06-13T17:17:34.165Z,19.40
2018-06-13T17:20:01.564Z,19.30
2018-06-13T17:22:28.861Z,19.30
2018-06-13T17:24:57.420Z,19.30
2018-06-13T17:27:24.835Z,19.30
2018-06-13T17:29:53.172Z,19.30
2018-06-13T17:32:20.477Z,19.30
2018-06-13T17:34:47.820Z,19.40
2018-06-13T17:37:15.902Z,19.40
2018-06-13T17:39:43.210Z,19.30
2018-06-13T17:42:10.486Z,19.30
2018-06-13T17:44:37.787Z,19.30
2018-06-13T17:47:05.127Z,19.50
2018-06-13T17:49:34.397Z,19.30
2018-06-13T17:52:01.747Z,19.20
2018-06-13T17:54:29.012Z,19.10
2018-06-13T17:56:56.641Z,19.10
2018-06-13T17:59:24.208Z,19.30
2018-06-13T18:01:51.499Z,19.10
2018-06-13T18:04:18.917Z,19.00
2018-06-13T18:06:46.243Z,19.40
2018-06-13T18:09:13.569Z,19.00
2018-06-13T18:11:41.055Z,18.90
2018-06-13T18:14:08.321Z,19.10
2018-06-13T18:16:35.627Z,19.20
2018-06-13T18:19:03.268Z,18.80
2018-06-13T18:21:30.676Z,18.90
2018-06-13T18:23:58.021Z,19.00
2018-06-13T18:26:25.223Z,18.80
2018-06-13T18:28:52.544Z,18.80
2018-06-13T18:31:19.833Z,18.80
2018-06-13T18:33:47.284Z,19.20
2018-06-13T18:36:14.586Z,18.80
2018-06-13T18:38:42.167Z,18.90
2018-06-13T18:41:09.444Z,19.00
2018-06-13T18:43:36.740Z,19.20
2018-06-13T18:46:04.273Z,18.80
2018-06-13T18:48:31.480Z,19.20
2018-06-13T18:50:58.774Z,19.30
2018-06-13T18:53:26.036Z,18.80
2018-06-13T18:55:53.347Z,18.80
2018-06-13T18:58:20.639Z,18.80
2018-06-13T19:00:48.474Z,18.70
2018-06-13T19:03:16.464Z,18.40
2018-06-13T19:05:43.968Z,18.70
2018-06-13T19:08:11.496Z,18.70
2018-06-13T19:10:38.931Z,19.10
2018-06-13T19:13:06.407Z,18.70
2018-06-13T19:15:34.144Z,18.60
2018-06-13T19:18:01.686Z,18.50
2018-06-13T19:20:29.212Z,18.50
2018-06-13T19:22:56.735Z,18.40
2018-06-13T19:25:24.208Z,18.30
2018-06-13T19:27:51.672Z,18.20
2018-06-13T19:30:19.684Z,18.20
2018-06-13T19:32:49.062Z,18.20
2018-06-13T19:35:16.365Z,18.00
2018-06-13T19:37:43.956Z,18.00
2018-06-13T19:42:39.119Z,17.90
2018-06-13T19:45:07.152Z,17.80
2018-06-13T19:47:40.228Z,17.80
2018-06-13T19:50:07.713Z,17.70
2018-06-13T19:52:40.845Z,17.70
2018-06-13T19:55:20.424Z,17.80
2018-06-13T19:57:53.890Z,17.50
2018-06-13T20:00:21.400Z,17.80
2018-06-13T20:02:54.551Z,17.40
2018-06-13T20:05:27.713Z,17.30
2018-06-13T20:07:55.167Z,17.30
2018-06-13T20:10:22.623Z,17.60
2018-06-13T20:12:55.947Z,17.00
2018-06-13T20:15:29.171Z,17.10
2018-06-13T20:18:02.604Z,17.00
2018-06-13T20:20:30.236Z,17.00
2018-06-13T20:22:57.875Z,17.10
2018-06-13T20:25:31.104Z,16.80
2018-06-13T20:28:04.195Z,16.80
2018-06-13T20:30:37.437Z,16.40
2018-06-13T20:33:05.061Z,16.70
2018-06-13T20:35:33.509Z,16.20
2018-06-13T20:38:00.999Z,16.50
2018-06-13T20:40:28.576Z,16.20
2018-06-13T20:42:56.457Z,16.40
2018-06-13T20:45:23.925Z,16.70
2018-06-13T20:47:51.848Z,16.60
2018-06-13T20:50:19.395Z,16.20
2018-06-13T20:52:47.915Z,15.90
2018-06-13T20:55:15.522Z,16.50
2018-06-13T20:57:42.960Z,16.20
2018-06-13T21:00:10.432Z,16.20
2018-06-13T21:02:38.068Z,16.10
2018-06-13T21:05:10.951Z,16.10
2018-06-13T21:07:38.488Z,16.10
2018-06-13T21:10:07.064Z,16.00
2018-06-13T21:12:34.589Z,16.00
2018-06-13T21:15:03.130Z,16.20
2018-06-13T21:17:30.410Z,16.00
2018-06-13T21:19:57.672Z,16.10
2018-06-13T21:22:25.128Z,15.50
2018-06-13T21:24:52.776Z,15.70
2018-06-13T21:27:20.367Z,15.80
2018-06-13T21:29:47.771Z,15.70
2018-06-13T21:32:15.206Z,15.70
2018-06-13T21:34:42.686Z,15.60
2018-06-13T21:37:10.148Z,15.60
2018-06-13T21:39:37.862Z,15.60
2018-06-13T21:42:05.401Z,15.70
2018-06-13T21:44:32.860Z,15.60
2018-06-13T21:47:00.316Z,15.50
2018-06-13T21:49:27.934Z,15.50
2018-06-13T21:51:55.584Z,15.10
2018-06-13T21:54:23.065Z,15.70
2018-06-13T21:56:50.661Z,15.70
2018-06-13T21:59:18.433Z,15.50
2018-06-13T22:01:46.027Z,15.40
2018-06-13T22:04:13.756Z,15.30
2018-06-13T22:09:09.934Z,15.00
2018-06-13T22:11:43.227Z,15.00
2018-06-13T22:14:10.880Z,15.40
2018-06-13T22:16:38.469Z,14.90
2018-06-13T22:19:06.183Z,14.80
2018-06-13T22:21:34.029Z,14.80
2018-06-13T22:24:07.218Z,14.70
2018-06-13T22:26:34.732Z,14.70
2018-06-13T22:29:02.016Z,14.50
2018-06-13T22:31:29.516Z,14.70
2018-06-13T22:33:57.314Z,14.50
2018-06-13T22:36:25.345Z,14.60
2018-06-13T22:38:53.648Z,14.50
2018-06-13T22:41:20.909Z,14.30
2018-06-13T22:43:48.203Z,14.70
2018-06-13T22:46:16.541Z,14.50
2018-06-13T22:48:43.889Z,14.40
2018-06-13T22:51:11.888Z,14.70
2018-06-13T22:53:39.339Z,14.80
2018-06-13T22:56:06.616Z,14.60
2018-06-13T22:58:34.383Z,14.60
2018-06-13T23:01:04.918Z,14.30
2018-06-13T23:03:32.461Z,14.30
2018-06-13T23:06:02.008Z,14.60
2018-06-13T23:08:29.900Z,13.80
2018-06-13T23:10:57.325Z,14.40
2018-06-13T23:13:25.625Z,14.20
2018-06-13T23:15:53.006Z,14.20
2018-06-13T23:18:20.448Z,14.20
2018-06-13T23:20:48.074Z,14.20
2018-06-13T23:23:15.384Z,14.50
2018-06-13T23:25:42.692Z,13.90
2018-06-13T23:28:10.214Z,14.40
2018-06-13T23:30:37.532Z,14.00
2018-06-13T23:33:05.941Z,14.00
2018-06-13T23:35:34.088Z,14.00
2018-06-13T23:38:01.744Z,14.20
2018-06-13T23:40:28.989Z,13.90
2018-06-13T23:42:56.384Z,14.00
2018-06-13T23:45:23.692Z,14.30
2018-06-13T23:47:50.971Z,14.00
2018-06-13T23:50:18.513Z,13.70
2018-06-13T23:52:45.867Z,13.70
2018-06-13T23:55:13.280Z,13.90
2018-06-13T23:57:41.379Z,13.60
